createdAt,value
2023-06-28T00:00:45.206Z,3.10
2023-06-28T00:03:32.521Z,3.00
2023-06-28T00:05:59.547Z,2.63
2023-06-28T00:08:26.784Z,2.80
2023-06-28T00:10:53.903Z,2.33
2023-06-28T00:13:21.102Z,2.40
2023-06-28T00:18:34.630Z,2.80
2023-06-28T00:21:02.740Z,3.30
2023-06-28T00:23:29.971Z,3.70
2023-06-28T00:25:56.879Z,3.17
2023-06-28T00:28:24.221Z,3.20
2023-06-28T00:30:51.142Z,3.72
2023-06-28T00:33:21.937Z,2.70
2023-06-28T00:35:49.805Z,2.70
2023-06-28T00:38:17.618Z,3.10
2023-06-28T00:40:45.247Z,2.92
2023-06-28T00:43:12.807Z,2.70
2023-06-28T00:45:39.844Z,3.30
2023-06-28T00:48:07.797Z,3.03
2023-06-28T00:50:36.661Z,3.05
2023-06-28T00:53:04.245Z,2.92
2023-06-28T00:55:31.209Z,2.85
2023-06-28T00:57:58.447Z,2.85
2023-06-28T01:00:25.380Z,2.87
2023-06-28T01:02:52.724Z,3.00
2023-06-28T01:05:21.615Z,2.90
2023-06-28T01:07:52.223Z,3.08
2023-06-28T01:10:19.502Z,3.08
2023-06-28T01:12:47.617Z,3.00
2023-06-28T01:15:15.368Z,2.85
2023-06-28T01:17:42.686Z,3.08
2023-06-28T01:20:09.830Z,2.80
2023-06-28T01:22:41.887Z,3.03
2023-06-28T01:25:11.285Z,2.90
2023-06-28T01:27:41.528Z,3.00
2023-06-28T01:30:12.363Z,2.60
2023-06-28T01:32:39.620Z,2.75
2023-06-28T01:35:06.955Z,2.63
2023-06-28T01:37:34.670Z,2.57
2023-06-28T01:40:02.225Z,2.28
2023-06-28T01:42:30.634Z,3.17
2023-06-28T01:44:57.718Z,3.65
2023-06-28T01:47:25.010Z,3.40
2023-06-28T01:49:51.994Z,3.20
2023-06-28T01:52:19.326Z,3.40
2023-06-28T01:54:46.201Z,3.10
2023-06-28T01:57:13.603Z,2.72
2023-06-28T01:59:40.516Z,2.80
2023-06-28T02:02:07.840Z,3.33
2023-06-28T02:04:34.754Z,3.13
2023-06-28T02:07:02.034Z,3.28
2023-06-28T02:09:29.447Z,3.00
2023-06-28T02:11:57.151Z,2.97
2023-06-28T02:14:24.009Z,2.90
2023-06-28T02:16:51.325Z,3.10
2023-06-28T02:19:20.114Z,2.70
2023-06-28T02:21:47.927Z,3.05
2023-06-28T02:24:14.774Z,2.78
2023-06-28T02:26:41.956Z,2.97
2023-06-28T02:29:08.924Z,2.85
2023-06-28T02:31:37.727Z,2.70
2023-06-28T02:34:04.729Z,2.70
2023-06-28T02:36:31.931Z,2.85
2023-06-28T02:38:58.774Z,2.80
2023-06-28T02:41:26.768Z,2.70
2023-06-28T02:43:53.618Z,2.67
2023-06-28T02:46:21.167Z,2.63
2023-06-28T02:48:48.050Z,2.90
2023-06-28T02:51:15.389Z,2.90
2023-06-28T02:53:42.695Z,2.88
2023-06-28T02:56:13.929Z,2.63
2023-06-28T02:58:59.499Z,2.70
2023-06-28T03:01:28.954Z,2.90
2023-06-28T03:03:56.062Z,2.73
2023-06-28T03:06:23.329Z,2.78
2023-06-28T03:08:50.281Z,2.70
2023-06-28T03:11:18.355Z,2.50
2023-06-28T03:13:45.297Z,2.35
2023-06-28T03:16:12.533Z,2.10
2023-06-28T03:18:40.397Z,2.50
2023-06-28T03:21:07.639Z,2.38
2023-06-28T03:23:35.591Z,2.30
2023-06-28T03:26:02.834Z,2.80
2023-06-28T03:28:30.460Z,2.70
2023-06-28T03:30:58.124Z,2.30
2023-06-28T03:33:25.021Z,2.60
2023-06-28T03:35:52.259Z,2.30
2023-06-28T03:38:19.205Z,2.45
2023-06-28T03:40:46.433Z,2.50
2023-06-28T03:43:13.382Z,2.70
2023-06-28T03:45:40.595Z,2.10
2023-06-28T03:48:08.343Z,2.20
2023-06-28T03:50:36.002Z,2.60
2023-06-28T03:53:02.943Z,2.60
2023-06-28T03:55:32.465Z,2.33
2023-06-28T03:57:59.600Z,2.30
2023-06-28T04:00:26.913Z,2.80
2023-06-28T04:02:53.895Z,2.47
2023-06-28T04:05:21.449Z,2.20
2023-06-28T04:07:58.860Z,2.50
2023-06-28T04:10:26.535Z,2.35
2023-06-28T04:12:53.461Z,2.53
2023-06-28T04:15:20.686Z,2.70
2023-06-28T04:17:47.674Z,2.57
2023-06-28T04:20:14.980Z,2.92
2023-06-28T04:22:41.922Z,3.20
2023-06-28T04:25:09.191Z,3.20
2023-06-28T04:27:36.078Z,3.05
2023-06-28T04:30:03.464Z,2.90
2023-06-28T04:32:31.108Z,2.72
2023-06-28T04:35:00.319Z,2.70
2023-06-28T04:37:29.115Z,3.00
2023-06-28T04:39:56.523Z,2.70
2023-06-28T04:42:23.613Z,2.97
2023-06-28T04:44:51.367Z,3.10
2023-06-28T04:47:18.425Z,3.45
2023-06-28T04:49:49.604Z,3.63
2023-06-28T04:52:17.249Z,3.53
2023-06-28T04:54:44.479Z,3.70
2023-06-28T04:57:11.411Z,3.10
2023-06-28T04:59:38.876Z,3.00
2023-06-28T05:02:06.850Z,3.05
2023-06-28T05:04:34.554Z,2.92
2023-06-28T05:07:05.773Z,2.80
2023-06-28T05:09:33.745Z,2.60
2023-06-28T05:12:01.061Z,2.50
2023-06-28T05:14:29.408Z,2.75
2023-06-28T05:16:56.838Z,2.80
2023-06-28T05:19:24.948Z,3.00
2023-06-28T05:21:52.048Z,2.80
2023-06-28T05:24:19.925Z,3.00
2023-06-28T05:26:46.908Z,3.00
2023-06-28T05:29:14.962Z,2.40
2023-06-28T05:31:42.319Z,2.70
2023-06-28T05:34:09.686Z,2.92
2023-06-28T05:36:36.595Z,2.75
2023-06-28T05:39:04.175Z,3.00
2023-06-28T05:41:31.266Z,3.30
2023-06-28T05:43:58.465Z,3.30
2023-06-28T05:46:25.370Z,3.13
2023-06-28T05:48:52.735Z,2.70
2023-06-28T05:51:19.664Z,2.65
2023-06-28T05:53:46.978Z,3.53
2023-06-28T05:56:13.995Z,3.40
2023-06-28T05:58:41.427Z,3.13
2023-06-28T06:01:08.401Z,2.75
2023-06-28T06:03:35.701Z,3.22
2023-06-28T06:06:02.825Z,3.70
2023-06-28T06:08:30.263Z,3.50
2023-06-28T06:10:57.148Z,3.13
2023-06-28T06:13:24.886Z,3.42
2023-06-28T06:15:51.770Z,3.33
2023-06-28T06:18:18.981Z,3.42
2023-06-28T06:20:45.953Z,3.43
2023-06-28T06:23:13.423Z,3.55
2023-06-28T06:25:40.454Z,3.40
2023-06-28T06:28:07.642Z,3.60
2023-06-28T06:30:34.552Z,2.90
2023-06-28T06:33:02.066Z,3.13
2023-06-28T06:35:29.271Z,3.35
2023-06-28T06:37:56.578Z,3.20
2023-06-28T06:40:23.546Z,3.85
2023-06-28T06:42:50.779Z,2.88
2023-06-28T06:45:21.085Z,3.50
2023-06-28T06:47:48.541Z,2.83
2023-06-28T06:50:16.114Z,3.60
2023-06-28T06:52:43.436Z,3.50
2023-06-28T06:55:10.348Z,3.50
2023-06-28T06:57:37.765Z,3.20
2023-06-28T07:00:07.916Z,3.50
2023-06-28T07:02:35.330Z,2.95
2023-06-28T07:05:02.463Z,3.05
2023-06-28T07:07:30.035Z,3.20
2023-06-28T07:09:56.926Z,3.00
2023-06-28T07:12:24.164Z,3.17
2023-06-28T07:14:51.090Z,2.90
2023-06-28T07:17:18.310Z,3.00
2023-06-28T07:19:45.216Z,2.90
2023-06-28T07:22:13.793Z,2.90
2023-06-28T07:24:41.059Z,2.60
2023-06-28T07:27:08.420Z,2.53
2023-06-28T07:29:35.327Z,3.00
2023-06-28T07:32:03.036Z,2.70
2023-06-28T07:34:30.210Z,2.90
2023-06-28T07:36:57.671Z,2.90
2023-06-28T07:39:24.541Z,3.03
2023-06-28T07:41:51.798Z,3.00
2023-06-28T07:44:18.692Z,3.00
2023-06-28T07:46:45.984Z,2.90
2023-06-28T07:49:12.895Z,2.80
2023-06-28T07:51:40.166Z,2.88
2023-06-28T07:54:11.598Z,2.63
2023-06-28T07:56:43.956Z,3.33
2023-06-28T07:59:10.907Z,2.40
2023-06-28T08:01:38.246Z,2.97
2023-06-28T08:04:05.386Z,2.35
2023-06-28T08:06:32.798Z,2.50
2023-06-28T08:08:59.720Z,2.03
2023-06-28T08:11:28.294Z,1.90
2023-06-28T08:13:55.230Z,1.98
2023-06-28T08:16:22.443Z,1.80
2023-06-28T08:18:49.329Z,2.00
2023-06-28T08:21:16.571Z,2.10
2023-06-28T08:23:43.505Z,2.13
2023-06-28T08:26:11.224Z,1.90
2023-06-28T08:28:50.320Z,1.95
2023-06-28T08:31:25.568Z,2.38
2023-06-28T08:33:52.482Z,2.58
2023-06-28T08:36:19.702Z,2.20
2023-06-28T08:38:46.658Z,1.95
2023-06-28T08:41:16.881Z,2.00
2023-06-28T08:43:48.005Z,2.25
2023-06-28T08:46:15.351Z,2.10
2023-06-28T08:48:42.366Z,2.30
2023-06-28T08:51:09.534Z,2.22
2023-06-28T08:53:38.149Z,2.20
2023-06-28T08:56:05.566Z,2.30
2023-06-28T08:58:32.743Z,2.47
2023-06-28T09:01:00.646Z,2.10
2023-06-28T09:03:28.735Z,1.70
2023-06-28T09:05:56.254Z,2.10
2023-06-28T09:08:23.767Z,1.90
2023-06-28T09:10:50.986Z,1.80
2023-06-28T09:13:21.283Z,1.90
2023-06-28T09:15:49.029Z,2.35
2023-06-28T09:18:16.727Z,1.73
2023-06-28T09:20:51.491Z,2.25
2023-06-28T09:23:24.631Z,2.10
2023-06-28T09:25:52.347Z,2.53
2023-06-28T09:28:20.643Z,2.00
2023-06-28T09:30:57.357Z,1.75
2023-06-28T09:33:25.147Z,2.05
2023-06-28T09:35:57.156Z,1.90
2023-06-28T09:38:24.664Z,2.30
2023-06-28T09:41:02.021Z,2.13
2023-06-28T09:43:33.655Z,2.10
2023-06-28T09:46:14.411Z,1.98
2023-06-28T09:48:45.536Z,2.35
2023-06-28T09:51:13.163Z,1.90
2023-06-28T09:53:50.812Z,2.08
2023-06-28T09:56:18.230Z,2.00
2023-06-28T09:58:47.448Z,2.40
2023-06-28T10:01:16.535Z,2.17
2023-06-28T10:03:46.631Z,1.80
2023-06-28T10:06:14.318Z,2.30
2023-06-28T10:08:41.365Z,2.47
2023-06-28T10:11:10.367Z,2.00
2023-06-28T10:13:37.415Z,2.40
2023-06-28T10:16:12.360Z,1.90
2023-06-28T10:18:39.435Z,2.00
2023-06-28T10:21:08.158Z,2.20
2023-06-28T10:23:37.058Z,1.88
2023-06-28T10:26:04.559Z,2.03
2023-06-28T10:28:35.814Z,1.90
2023-06-28T10:31:04.106Z,1.70
2023-06-28T10:33:34.134Z,1.80
2023-06-28T10:36:02.032Z,1.90
2023-06-28T10:38:29.442Z,1.70
2023-06-28T10:40:56.695Z,2.00
2023-06-28T10:43:24.604Z,1.95
2023-06-28T10:45:53.210Z,2.10
2023-06-28T10:48:23.723Z,2.30
2023-06-28T10:50:52.065Z,2.10
2023-06-28T10:53:22.978Z,2.00
2023-06-28T10:56:05.884Z,2.00
2023-06-28T10:58:39.901Z,2.17
2023-06-28T11:01:08.122Z,2.13
2023-06-28T11:03:42.440Z,1.90
2023-06-28T11:06:10.587Z,2.27
2023-06-28T11:08:38.851Z,2.20
2023-06-28T11:11:07.423Z,2.30
2023-06-28T11:13:40.533Z,2.28
2023-06-28T11:16:11.412Z,2.20
2023-06-28T11:18:39.211Z,1.80
2023-06-28T11:21:07.055Z,2.15
2023-06-28T11:23:40.951Z,2.00
2023-06-28T11:26:09.281Z,1.90
2023-06-28T11:28:36.790Z,1.90
2023-06-28T11:31:18.166Z,1.80
2023-06-28T11:33:46.755Z,2.00
2023-06-28T11:36:14.035Z,1.75
2023-06-28T11:38:43.756Z,1.90
2023-06-28T11:41:11.441Z,1.90
2023-06-28T11:43:38.345Z,1.80
2023-06-28T11:46:05.966Z,2.20
2023-06-28T11:48:33.099Z,2.00
2023-06-28T11:51:01.743Z,1.85
2023-06-28T11:53:29.402Z,1.63
2023-06-28T11:55:57.390Z,1.90
2023-06-28T11:58:34.058Z,2.05
2023-06-28T12:01:01.729Z,2.13
2023-06-28T12:03:31.890Z,2.10
2023-06-28T12:05:59.568Z,2.10
2023-06-28T12:08:26.472Z,2.10
2023-06-28T12:10:53.767Z,2.35
2023-06-28T12:13:23.986Z,2.15
2023-06-28T12:15:51.305Z,2.13
2023-06-28T12:18:18.836Z,2.15
2023-06-28T12:20:46.082Z,1.90
2023-06-28T12:23:14.043Z,1.73
2023-06-28T12:25:42.081Z,1.80
2023-06-28T12:28:12.931Z,1.80
2023-06-28T12:30:40.452Z,2.20
2023-06-28T12:33:08.456Z,1.63
2023-06-28T12:35:36.294Z,2.05
2023-06-28T12:38:04.123Z,1.70
2023-06-28T12:40:32.922Z,1.70
2023-06-28T12:43:09.852Z,1.75
2023-06-28T12:46:06.132Z,1.80
2023-06-28T12:48:33.792Z,1.90
2023-06-28T12:51:02.308Z,1.55
2023-06-28T12:53:29.294Z,2.00
2023-06-28T12:55:56.545Z,2.03
2023-06-28T12:58:23.597Z,1.73
2023-06-28T13:00:50.856Z,2.30
2023-06-28T13:03:20.100Z,2.00
2023-06-28T13:05:49.336Z,2.13
2023-06-28T13:08:16.280Z,1.85
2023-06-28T13:10:43.662Z,1.70
2023-06-28T13:13:10.802Z,1.63
2023-06-28T13:15:38.082Z,1.65
2023-06-28T13:18:05.591Z,2.17
2023-06-28T13:20:33.328Z,2.08
2023-06-28T13:23:00.203Z,2.60
2023-06-28T13:25:27.769Z,3.60
2023-06-28T13:30:51.061Z,3.22
2023-06-28T13:33:18.104Z,2.30
2023-06-28T13:35:45.583Z,2.10
2023-06-28T13:38:12.775Z,2.20
2023-06-28T13:40:40.003Z,2.05
2023-06-28T13:43:08.895Z,2.08
2023-06-28T13:45:36.215Z,2.00
2023-06-28T13:48:03.686Z,1.90
2023-06-28T13:50:30.918Z,1.98
2023-06-28T13:52:58.020Z,2.20
2023-06-28T13:55:25.695Z,2.17
2023-06-28T13:57:52.858Z,1.80
2023-06-28T14:00:20.611Z,1.87
2023-06-28T14:02:47.713Z,1.90
2023-06-28T14:05:15.491Z,2.25
2023-06-28T14:07:42.459Z,1.85
2023-06-28T14:10:12.461Z,1.90
2023-06-28T14:12:39.524Z,1.80
2023-06-28T14:15:07.217Z,1.67
2023-06-28T14:17:34.225Z,1.80
2023-06-28T14:20:01.493Z,2.00
2023-06-28T14:22:28.600Z,1.70
2023-06-28T14:24:55.839Z,1.80
2023-06-28T14:27:22.775Z,1.80
2023-06-28T14:29:50.226Z,2.00
2023-06-28T14:32:17.214Z,1.55
2023-06-28T14:34:44.624Z,1.95
2023-06-28T14:37:11.551Z,1.80
2023-06-28T14:39:38.785Z,1.70
2023-06-28T14:42:05.820Z,1.80
2023-06-28T14:44:33.104Z,2.00
2023-06-28T14:47:00.050Z,2.00
2023-06-28T14:49:27.288Z,1.80
2023-06-28T14:51:54.284Z,2.10
2023-06-28T14:54:21.876Z,2.10
2023-06-28T14:56:48.803Z,1.90
2023-06-28T14:59:16.126Z,1.80
2023-06-28T15:01:43.134Z,1.90
2023-06-28T15:04:10.661Z,1.92
2023-06-28T15:06:37.589Z,1.80
2023-06-28T15:09:04.899Z,2.00
2023-06-28T15:11:31.810Z,1.70
2023-06-28T15:14:03.231Z,1.90
2023-06-28T15:16:30.299Z,1.90
2023-06-28T15:18:57.580Z,1.77
2023-06-28T15:21:24.459Z,1.90
2023-06-28T15:23:51.667Z,1.75
2023-06-28T15:26:18.572Z,1.97
2023-06-28T15:28:45.956Z,1.95
2023-06-28T15:31:12.878Z,1.70
2023-06-28T15:33:40.453Z,2.03
2023-06-28T15:36:07.586Z,2.15
2023-06-28T15:38:34.823Z,2.13
2023-06-28T15:41:01.751Z,2.03
2023-06-28T15:43:29.343Z,2.22
2023-06-28T15:45:56.288Z,2.05
2023-06-28T15:48:23.504Z,2.00
2023-06-28T15:50:50.948Z,2.17
2023-06-28T15:53:18.319Z,1.65
2023-06-28T15:55:45.268Z,1.90
2023-06-28T15:58:12.505Z,2.13
2023-06-28T16:00:39.866Z,2.05
2023-06-28T16:03:07.338Z,2.23
2023-06-28T16:05:34.390Z,2.38
2023-06-28T16:08:01.681Z,2.10
2023-06-28T16:10:28.631Z,2.00
2023-06-28T16:12:55.904Z,1.85
2023-06-28T16:15:23.344Z,2.17
2023-06-28T16:17:50.768Z,1.90
2023-06-28T16:20:18.059Z,1.92
2023-06-28T16:22:45.273Z,2.05
2023-06-28T16:25:13.682Z,2.20
2023-06-28T16:27:41.016Z,2.23
2023-06-28T16:30:09.299Z,2.00
2023-06-28T16:32:36.316Z,2.42
2023-06-28T16:35:03.735Z,1.80
2023-06-28T16:37:30.679Z,2.20
2023-06-28T16:39:58.711Z,1.87
2023-06-28T16:42:25.736Z,2.00
2023-06-28T16:44:52.959Z,2.03
2023-06-28T16:47:19.878Z,1.92
2023-06-28T16:49:48.175Z,2.20
2023-06-28T16:52:15.397Z,1.90
2023-06-28T16:54:42.592Z,2.35
2023-06-28T16:57:09.511Z,1.90
2023-06-28T16:59:36.802Z,1.70
2023-06-28T17:02:03.869Z,1.98
2023-06-28T17:04:31.138Z,1.80
2023-06-28T17:06:58.157Z,2.08
2023-06-28T17:09:26.604Z,2.03
2023-06-28T17:11:53.595Z,2.13
2023-06-28T17:14:21.551Z,2.08
2023-06-28T17:16:48.579Z,1.90
2023-06-28T17:19:15.459Z,2.15
2023-06-28T17:21:42.897Z,2.10
2023-06-28T17:24:09.762Z,2.80
2023-06-28T17:26:37.266Z,2.25
2023-06-28T17:29:04.228Z,2.20
2023-06-28T17:31:31.482Z,2.38
2023-06-28T17:33:58.404Z,2.40
2023-06-28T17:36:28.802Z,2.20
2023-06-28T17:38:55.752Z,2.20
2023-06-28T17:41:23.123Z,2.30
2023-06-28T17:43:50.020Z,2.03
2023-06-28T17:46:17.206Z,2.10
2023-06-28T17:48:44.088Z,1.80
2023-06-28T17:51:11.513Z,2.00
2023-06-28T17:53:38.883Z,1.93
2023-06-28T17:56:06.323Z,2.00
2023-06-28T17:58:36.748Z,2.20
2023-06-28T18:01:04.089Z,1.88
2023-06-28T18:03:31.115Z,1.77
2023-06-28T18:05:58.396Z,1.97
2023-06-28T18:08:25.339Z,1.77
2023-06-28T18:10:53.828Z,1.90
2023-06-28T18:13:20.705Z,1.80
2023-06-28T18:15:48.091Z,1.88
2023-06-28T18:18:14.997Z,1.80
2023-06-28T18:20:42.563Z,1.80
2023-06-28T18:23:09.788Z,1.80
2023-06-28T18:25:37.050Z,1.63
2023-06-28T18:28:04.019Z,1.77
2023-06-28T18:30:31.246Z,2.10
2023-06-28T18:32:58.279Z,1.80
2023-06-28T18:35:25.595Z,1.50
2023-06-28T18:37:52.561Z,2.00
2023-06-28T18:40:20.255Z,2.10
2023-06-28T18:42:47.221Z,1.90
2023-06-28T18:45:14.649Z,1.90
2023-06-28T18:47:41.684Z,2.00
2023-06-28T18:50:09.295Z,1.83
2023-06-28T18:52:36.182Z,2.08
2023-06-28T18:55:03.532Z,1.90
2023-06-28T18:57:30.428Z,1.70
2023-06-28T18:59:57.859Z,1.77
2023-06-28T19:02:24.815Z,2.08
2023-06-28T19:04:52.146Z,2.20
2023-06-28T19:07:19.378Z,2.00
2023-06-28T19:09:46.979Z,1.83
2023-06-28T19:12:13.928Z,1.90
2023-06-28T19:14:41.674Z,1.75
2023-06-28T19:17:08.811Z,2.10
2023-06-28T19:19:35.630Z,2.37
2023-06-28T19:22:03.824Z,2.00
2023-06-28T19:24:31.485Z,2.28
2023-06-28T19:26:58.256Z,2.40
2023-06-28T19:29:26.075Z,2.63
2023-06-28T19:31:54.258Z,3.00
2023-06-28T19:34:21.482Z,2.33
2023-06-28T19:36:48.478Z,2.22
2023-06-28T19:39:15.708Z,2.38
2023-06-28T19:41:42.590Z,2.50
2023-06-28T19:44:09.979Z,2.20
2023-06-28T19:46:36.888Z,2.03
2023-06-28T19:49:04.152Z,2.05
2023-06-28T19:51:31.113Z,2.22
2023-06-28T19:53:58.360Z,2.30
2023-06-28T19:56:25.986Z,2.10
2023-06-28T19:58:53.290Z,2.33
2023-06-28T20:01:20.712Z,2.05
2023-06-28T20:03:49.054Z,2.38
2023-06-28T20:06:16.072Z,2.40
2023-06-28T20:08:43.418Z,2.50
2023-06-28T20:11:11.379Z,2.20
2023-06-28T20:13:39.359Z,2.33
2023-06-28T20:16:06.791Z,2.20
2023-06-28T20:18:34.111Z,2.58
2023-06-28T20:21:01.035Z,2.03
2023-06-28T20:23:28.394Z,3.00
2023-06-28T20:25:55.300Z,3.13
2023-06-28T20:28:22.902Z,2.60
2023-06-28T20:30:49.947Z,2.45
2023-06-28T20:33:17.572Z,3.20
2023-06-28T20:35:45.689Z,2.70
2023-06-28T20:38:13.216Z,2.50
2023-06-28T20:40:40.292Z,2.65
2023-06-28T20:43:12.107Z,2.70
2023-06-28T20:45:39.176Z,2.80
2023-06-28T20:48:06.764Z,2.78
2023-06-28T20:50:33.708Z,2.70
2023-06-28T20:53:01.014Z,2.90
2023-06-28T20:55:28.065Z,3.30
2023-06-28T20:57:55.339Z,3.17
2023-06-28T21:00:25.071Z,3.53
2023-06-28T21:02:52.368Z,3.20
2023-06-28T21:05:19.856Z,3.80
2023-06-28T21:07:47.097Z,4.18
2023-06-28T21:10:14.016Z,3.20
2023-06-28T21:12:41.267Z,3.60
2023-06-28T21:15:08.491Z,3.75
2023-06-28T21:17:36.484Z,3.50
2023-06-28T21:20:05.305Z,3.30
2023-06-28T21:22:32.642Z,3.57
2023-06-28T21:24:59.537Z,3.30
2023-06-28T21:27:26.752Z,3.30
2023-06-28T21:29:54.450Z,3.28
2023-06-28T21:32:21.727Z,3.30
2023-06-28T21:34:48.648Z,3.30
2023-06-28T21:37:16.058Z,2.92
2023-06-28T21:39:43.016Z,2.65
2023-06-28T21:42:10.617Z,2.55
2023-06-28T21:44:37.615Z,2.80
2023-06-28T21:47:05.120Z,2.30
2023-06-28T21:49:32.006Z,3.15
2023-06-28T21:51:59.281Z,3.50
2023-06-28T21:54:26.643Z,3.45
2023-06-28T21:56:54.512Z,3.40
2023-06-28T21:59:21.487Z,2.70
2023-06-28T22:01:50.072Z,3.00
2023-06-28T22:04:17.701Z,2.80
2023-06-28T22:07:01.268Z,2.80
2023-06-28T22:09:31.845Z,3.10
2023-06-28T22:11:59.161Z,3.20
2023-06-28T22:14:26.129Z,2.90
2023-06-28T22:16:54.619Z,3.30
2023-06-28T22:19:23.496Z,3.53
2023-06-28T22:21:52.498Z,3.88
2023-06-28T22:24:19.551Z,4.30
2023-06-28T22:26:46.830Z,4.53
2023-06-28T22:29:13.767Z,4.20
2023-06-28T22:31:41.182Z,3.53
2023-06-28T22:34:08.087Z,3.95
2023-06-28T22:36:37.796Z,3.60
2023-06-28T22:39:06.154Z,3.45
2023-06-28T22:41:34.436Z,3.20
2023-06-28T22:44:01.474Z,4.68
2023-06-28T22:46:29.006Z,3.60
2023-06-28T22:48:56.213Z,3.60
2023-06-28T22:51:23.822Z,3.35
2023-06-28T22:53:50.907Z,3.92
2023-06-28T22:56:18.112Z,4.18
2023-06-28T22:58:44.995Z,4.60
2023-06-28T23:01:12.374Z,4.03
2023-06-28T23:03:39.985Z,4.03
2023-06-28T23:06:07.738Z,3.30
2023-06-28T23:08:35.667Z,3.60
2023-06-28T23:11:02.953Z,4.30
2023-06-28T23:13:29.937Z,3.80
2023-06-28T23:15:57.336Z,4.55
2023-06-28T23:18:25.343Z,4.10
2023-06-28T23:20:53.672Z,3.50
2023-06-28T23:23:21.435Z,2.97
2023-06-28T23:25:52.187Z,3.30
2023-06-28T23:28:22.658Z,3.30
2023-06-28T23:30:51.594Z,3.00
2023-06-28T23:33:18.771Z,3.75
2023-06-28T23:35:46.370Z,3.85
2023-06-28T23:38:13.930Z,3.20
2023-06-28T23:40:45.372Z,3.40
2023-06-28T23:43:13.698Z,3.60
2023-06-28T23:45:42.832Z,3.50
2023-06-28T23:48:10.493Z,3.85
2023-06-28T23:50:38.091Z,3.43
2023-06-28T23:53:05.301Z,3.40
2023-06-28T23:55:34.625Z,3.20
2023-06-28T23:58:02.594Z,3.10
